createdAt,value
2022-08-20T00:00:25.068Z,1016.337524
2022-08-20T00:01:29.159Z,1016.384644
2022-08-20T00:02:28.801Z,1016.387634
2022-08-20T00:03:35.677Z,1016.411255
2022-08-20T00:04:36.080Z,1016.402649
2022-08-20T00:05:36.465Z,1016.355835
2022-08-20T00:06:35.752Z,1016.402649
2022-08-20T00:07:44.602Z,1016.433228
2022-08-20T00:09:41.517Z,1016.433228
2022-08-20T00:10:35.975Z,1016.390198
2022-08-20T00:11:38.171Z,1016.413147
2022-08-20T00:12:31.222Z,1016.366638
2022-08-20T00:14:13.163Z,1016.36731
2022-08-20T00:15:00.282Z,1016.445557
2022-08-20T00:16:01.157Z,1016.325134
2022-08-20T00:17:00.239Z,1016.437561
2022-08-20T00:18:01.498Z,1016.343689
2022-08-20T00:19:01.638Z,1016.339355
2022-08-20T00:20:03.643Z,1016.338379
2022-08-20T00:21:06.940Z,1016.337708
2022-08-20T00:22:10.716Z,1016.360657
2022-08-20T00:23:10.174Z,1016.387878
2022-08-20T00:24:01.468Z,1016.330322
2022-08-20T00:25:04.166Z,1016.364929
2022-08-20T00:26:00.462Z,1016.360657
2022-08-20T00:27:06.370Z,1016.356323
2022-08-20T00:29:05.726Z,1016.333008
2022-08-20T00:30:03.790Z,1016.390747
2022-08-20T00:31:02.665Z,1016.413696
2022-08-20T00:32:03.253Z,1016.409363
2022-08-20T00:32:59.647Z,1016.447876
2022-08-20T00:35:09.551Z,1016.420288
2022-08-20T00:36:05.877Z,1016.540771
2022-08-20T00:37:09.869Z,1016.482849
2022-08-20T00:38:11.973Z,1016.474792
2022-08-20T00:39:08.380Z,1016.474792
2022-08-20T00:40:22.113Z,1016.489929
2022-08-20T00:40:22.846Z,1016.489929
2022-08-20T00:40:22.863Z,1016.489929
2022-08-20T00:41:09.162Z,1016.502136
2022-08-20T00:42:09.272Z,1016.494995
2022-08-20T00:44:07.289Z,1016.483521
2022-08-20T00:45:04.288Z,1016.420654
2022-08-20T00:46:06.134Z,1016.482849
2022-08-20T00:47:06.897Z,1016.521545
2022-08-20T00:48:03.483Z,1016.439819
2022-08-20T00:50:04.520Z,1016.481934
2022-08-20T00:51:48.184Z,1016.471436
2022-08-20T00:52:28.356Z,1016.503784
2022-08-20T00:53:29.000Z,1016.446472
2022-08-20T00:54:27.076Z,1016.367859
2022-08-20T00:55:31.499Z,1016.429382
2022-08-20T00:56:29.093Z,1016.476501
2022-08-20T00:57:24.797Z,1016.46814
2022-08-20T00:58:29.216Z,1016.487915
2022-08-20T00:59:21.985Z,1016.452271
2022-08-20T01:00:25.877Z,1016.385925
2022-08-20T01:01:21.200Z,1016.541626
2022-08-20T01:02:21.719Z,1016.517944
2022-08-20T01:03:18.809Z,1016.474792
2022-08-20T01:04:22.607Z,1016.38092
2022-08-20T01:05:14.710Z,1016.419556
2022-08-20T01:06:13.845Z,1016.450317
2022-08-20T01:07:08.930Z,1016.450317
2022-08-20T01:08:10.039Z,1016.434448
2022-08-20T01:09:05.698Z,1016.496948
2022-08-20T01:10:07.674Z,1016.445923
2022-08-20T01:11:00.975Z,1016.457397
2022-08-20T01:12:03.980Z,1016.433838
2022-08-20T01:12:59.971Z,1016.42572
2022-08-20T01:15:01.596Z,1016.495361
2022-08-20T01:15:57.733Z,1016.420654
2022-08-20T01:17:01.493Z,1016.470825
2022-08-20T01:17:56.157Z,1016.436096
2022-08-20T01:19:58.514Z,1016.470825
2022-08-20T01:20:50.909Z,1016.545044
2022-08-20T01:21:53.272Z,1016.529175
2022-08-20T01:23:00.842Z,1016.591248
2022-08-20T01:24:58.505Z,1016.583801
2022-08-20T01:25:56.476Z,1016.552551
2022-08-20T01:27:00.828Z,1016.497986
2022-08-20T01:27:55.647Z,1016.545044
2022-08-20T01:28:55.125Z,1016.56842
2022-08-20T01:29:58.032Z,1016.591248
2022-08-20T01:31:00.600Z,1016.625427
2022-08-20T01:31:54.152Z,1016.618042
2022-08-20T01:32:54.811Z,1016.618042
2022-08-20T01:34:56.636Z,1016.609741
2022-08-20T01:35:53.777Z,1016.648071
2022-08-20T01:36:59.302Z,1016.690735
2022-08-20T01:38:50.191Z,1016.615356
2022-08-20T01:38:51.942Z,1016.615356
2022-08-20T01:39:27.852Z,1016.616516
2022-08-20T01:40:28.056Z,1016.621887
2022-08-20T01:41:28.339Z,1016.656982
2022-08-20T01:42:24.724Z,1016.652527
2022-08-20T01:44:21.139Z,1016.643799
2022-08-20T01:45:20.439Z,1016.581177
2022-08-20T01:45:26.957Z,1016.581177
2022-08-20T01:46:22.340Z,1016.736206
2022-08-20T01:47:19.382Z,1016.665894
2022-08-20T01:48:14.963Z,1016.611389
2022-08-20T01:49:20.296Z,1016.638611
2022-08-20T01:49:23.502Z,1016.638611
2022-08-20T01:50:25.561Z,1016.70459
2022-08-20T01:51:23.977Z,1016.681396
2022-08-20T01:52:24.689Z,1016.695923
2022-08-20T01:54:21.800Z,1016.754333
2022-08-20T01:55:21.989Z,1016.776855
2022-08-20T01:56:17.109Z,1016.811523
2022-08-20T01:57:19.751Z,1016.862244
2022-08-20T01:59:13.689Z,1016.780518
2022-08-20T02:00:11.079Z,1016.780518
2022-08-20T02:00:20.183Z,1016.780518
2022-08-20T02:00:20.506Z,1016.780518
2022-08-20T02:01:21.035Z,1016.799744
2022-08-20T02:02:18.331Z,1016.733826
2022-08-20T02:04:16.139Z,1016.760986
2022-08-20T02:05:26.105Z,1016.849731
2022-08-20T02:05:30.839Z,1016.849731
2022-08-20T02:06:23.271Z,1016.806763
2022-08-20T02:07:24.559Z,1016.783203
2022-08-20T02:08:20.937Z,1016.806763
2022-08-20T02:09:21.448Z,1016.775269
2022-08-20T02:10:27.822Z,1016.708374
2022-08-20T02:11:28.838Z,1016.774353
2022-08-20T02:12:28.792Z,1016.766418
2022-08-20T02:14:25.950Z,1016.724304
2022-08-20T02:15:19.167Z,1016.74353
2022-08-20T02:15:34.993Z,1016.74353
2022-08-20T02:15:37.098Z,1016.74353
2022-08-20T02:16:19.342Z,1016.744507
2022-08-20T02:17:18.432Z,1016.717957
2022-08-20T02:19:14.787Z,1016.741272
2022-08-20T02:20:20.299Z,1016.740845
2022-08-20T02:21:20.159Z,1016.751526
2022-08-20T02:22:22.074Z,1016.700439
2022-08-20T02:23:21.426Z,1016.735657
2022-08-20T02:24:18.332Z,1016.723267
2022-08-20T02:25:23.316Z,1016.718872
2022-08-20T02:26:47.650Z,1016.742798
2022-08-20T02:27:28.638Z,1016.766418
2022-08-20T02:28:26.754Z,1016.720642
2022-08-20T02:29:23.793Z,1016.818115
2022-08-20T02:30:27.984Z,1016.724304
2022-08-20T02:31:24.964Z,1016.817444
2022-08-20T02:32:24.436Z,1016.801636
2022-08-20T02:32:33.600Z,1016.801636
2022-08-20T02:32:34.138Z,1016.801636
2022-08-20T02:34:28.358Z,1016.783203
2022-08-20T02:35:28.101Z,1016.763
2022-08-20T02:36:23.496Z,1016.766418
2022-08-20T02:37:27.623Z,1016.746094
2022-08-20T02:39:22.316Z,1016.76123
2022-08-20T02:40:18.648Z,1016.683472
2022-08-20T02:40:30.115Z,1016.683472
2022-08-20T02:40:30.970Z,1016.683472
2022-08-20T02:41:21.675Z,1016.67511
2022-08-20T02:42:16.115Z,1016.730347
2022-08-20T02:43:17.244Z,1016.672485
2022-08-20T02:44:13.498Z,1016.69165
2022-08-20T02:45:18.911Z,1016.656189
2022-08-20T02:45:19.256Z,1016.656189
2022-08-20T02:46:12.146Z,1016.694763
2022-08-20T02:47:10.320Z,1016.640259
2022-08-20T02:48:11.354Z,1016.694763
2022-08-20T02:50:08.425Z,1016.650452
2022-08-20T02:51:06.731Z,1016.7005
2022-08-20T02:52:04.748Z,1016.668884
2022-08-20T02:53:10.069Z,1016.625854
2022-08-20T02:55:04.170Z,1016.540344
2022-08-20T02:56:02.400Z,1016.594788
2022-08-20T02:57:06.627Z,1016.520081
2022-08-20T02:58:03.555Z,1016.54364
2022-08-20T03:00:09.590Z,1016.656128
2022-08-20T03:01:07.865Z,1016.651794
2022-08-20T03:02:11.380Z,1016.666565
2022-08-20T03:03:11.590Z,1016.729065
2022-08-20T03:04:05.985Z,1016.613281
2022-08-20T03:05:10.472Z,1016.651794
2022-08-20T03:06:06.310Z,1016.616577
2022-08-20T03:07:57.353Z,1016.622131
2022-08-20T03:09:40.272Z,1016.591736
2022-08-20T03:10:43.497Z,1016.587219
2022-08-20T03:11:39.683Z,1016.618469
2022-08-20T03:12:48.695Z,1016.60614
2022-08-20T03:14:47.122Z,1016.531494
2022-08-20T03:15:43.491Z,1016.600769
2022-08-20T03:16:43.505Z,1016.596375
2022-08-20T03:17:45.884Z,1016.584412
2022-08-20T03:19:42.969Z,1016.607727
2022-08-20T03:20:45.965Z,1016.614746
2022-08-20T03:21:44.490Z,1016.65387
2022-08-20T03:22:46.795Z,1016.638062
2022-08-20T03:23:46.469Z,1016.575745
2022-08-20T03:24:48.973Z,1016.641479
2022-08-20T03:25:45.017Z,1016.57489
2022-08-20T03:26:49.559Z,1016.605469
2022-08-20T03:27:53.908Z,1016.652161
2022-08-20T03:29:47.963Z,1016.582581
2022-08-20T03:30:47.154Z,1016.667847
2022-08-20T03:31:52.656Z,1016.717896
2022-08-20T03:32:49.699Z,1016.72937
2022-08-20T03:34:55.156Z,1016.706604
2022-08-20T03:35:58.652Z,1016.702087
2022-08-20T03:37:01.055Z,1016.721313
2022-08-20T03:38:00.542Z,1016.682556
2022-08-20T03:39:56.436Z,1016.691467
2022-08-20T03:41:03.202Z,1016.602112
2022-08-20T03:42:08.435Z,1016.695068
2022-08-20T03:43:14.171Z,1016.5896
2022-08-20T03:44:09.671Z,1016.586243
2022-08-20T03:45:20.382Z,1016.581848
2022-08-20T03:46:22.966Z,1016.535156
2022-08-20T03:46:23.228Z,1016.535156
2022-08-20T03:47:15.823Z,1016.528137
2022-08-20T03:48:12.316Z,1016.509766
2022-08-20T03:50:14.854Z,1016.630249
2022-08-20T03:50:22.689Z,1016.630249
2022-08-20T03:50:23.123Z,1016.630249
2022-08-20T03:51:18.800Z,1016.548462
2022-08-20T03:52:17.713Z,1016.533081
2022-08-20T03:53:19.406Z,1016.626709
2022-08-20T03:54:15.784Z,1016.52124
2022-08-20T03:55:16.797Z,1016.489502
2022-08-20T03:56:14.896Z,1016.39917
2022-08-20T03:57:22.312Z,1016.484375
2022-08-20T03:58:16.408Z,1016.457153
2022-08-20T03:59:17.776Z,1016.444702
2022-08-20T04:00:15.311Z,1016.448303
2022-08-20T04:01:37.085Z,1016.397766
2022-08-20T04:01:44.447Z,1016.397766
2022-08-20T04:02:20.465Z,1016.366638
2022-08-20T04:03:15.056Z,1016.434326
2022-08-20T04:05:16.529Z,1016.391174
2022-08-20T04:06:17.470Z,1016.394653
2022-08-20T04:07:15.523Z,1016.335754
2022-08-20T04:08:19.991Z,1016.347168
2022-08-20T04:11:00.993Z,1016.407104
2022-08-20T04:11:40.738Z,1016.49762
2022-08-20T04:12:39.924Z,1016.439941
2022-08-20T04:13:41.481Z,1016.455811
2022-08-20T04:13:43.386Z,1016.455811
2022-08-20T04:14:37.434Z,1016.483032
2022-08-20T04:15:32.776Z,1016.475525
2022-08-20T04:16:31.145Z,1016.525635
2022-08-20T04:17:28.952Z,1016.556458
2022-08-20T04:19:29.179Z,1016.547668
2022-08-20T04:19:34.297Z,1016.547668
2022-08-20T04:20:29.321Z,1016.691467
2022-08-20T04:21:24.067Z,1016.586243
2022-08-20T04:22:23.397Z,1016.640686
2022-08-20T04:23:18.954Z,1016.613464
2022-08-20T04:24:22.809Z,1016.656555
2022-08-20T04:24:31.971Z,1016.656555
2022-08-20T04:24:32.419Z,1016.656555
2022-08-20T04:25:23.973Z,1016.637024
2022-08-20T04:26:18.365Z,1016.56781
2022-08-20T04:27:19.631Z,1016.564209
2022-08-20T04:28:22.639Z,1016.602905
2022-08-20T04:30:17.732Z,1016.64856
2022-08-20T04:31:18.169Z,1016.652161
2022-08-20T04:32:15.503Z,1016.628174
2022-08-20T04:33:15.430Z,1016.717896
2022-08-20T04:34:14.819Z,1016.703003
2022-08-20T04:35:11.052Z,1016.764343
2022-08-20T04:36:11.038Z,1016.857483
2022-08-20T04:37:05.558Z,1016.837097
2022-08-20T04:37:16.712Z,1016.837097
2022-08-20T04:37:16.764Z,1016.837097
2022-08-20T04:38:09.845Z,1016.853027
2022-08-20T04:40:07.033Z,1016.857483
2022-08-20T04:41:01.623Z,1016.876831
2022-08-20T04:42:02.834Z,1016.837097
2022-08-20T04:43:00.783Z,1016.852112
2022-08-20T04:44:04.682Z,1016.813477
2022-08-20T04:44:59.259Z,1016.863586
2022-08-20T04:46:03.101Z,1016.85907
2022-08-20T04:47:04.375Z,1016.84729
2022-08-20T04:47:59.096Z,1016.819946
2022-08-20T04:50:01.964Z,1016.885864
2022-08-20T04:51:01.457Z,1016.850281
2022-08-20T04:51:59.157Z,1016.877502
2022-08-20T04:52:59.388Z,1016.920532
2022-08-20T04:54:54.529Z,1016.956055
2022-08-20T04:55:56.513Z,1016.994751
2022-08-20T04:56:51.405Z,1016.994751
2022-08-20T04:57:57.098Z,1017.01062
2022-08-20T04:59:57.679Z,1017.061096
2022-08-20T04:59:59.601Z,1017.061096
2022-08-20T05:01:37.227Z,1017.054016
2022-08-20T05:02:06.379Z,1017.067383
2022-08-20T05:03:05.393Z,1017.057922
2022-08-20T05:05:05.025Z,1017.070068
2022-08-20T05:06:00.801Z,1017.026184
2022-08-20T05:06:59.604Z,1017.056824
2022-08-20T05:08:04.052Z,1017.134155
2022-08-20T05:10:01.311Z,1017.133301
2022-08-20T05:10:59.896Z,1017.082214
2022-08-20T05:11:06.782Z,1017.082214
2022-08-20T05:11:34.183Z,1017.082214
2022-08-20T05:11:56.531Z,1017.118286
2022-08-20T05:12:55.114Z,1017.08075
2022-08-20T05:14:47.344Z,1017.116882
2022-08-20T05:15:47.333Z,1017.120117
2022-08-20T05:16:48.029Z,1017.10791
2022-08-20T05:17:47.335Z,1017.146484
2022-08-20T05:19:46.105Z,1017.11499
2022-08-20T05:20:43.030Z,1017.156921
2022-08-20T05:21:46.254Z,1017.160522
2022-08-20T05:22:39.597Z,1017.125244
2022-08-20T05:24:35.004Z,1017.156921
2022-08-20T05:25:34.906Z,1017.171875
2022-08-20T05:26:34.057Z,1017.183228
2022-08-20T05:27:36.881Z,1017.256897
2022-08-20T05:28:29.413Z,1017.171875
2022-08-20T05:29:26.545Z,1017.214966
2022-08-20T05:30:27.028Z,1017.226257
2022-08-20T05:31:21.962Z,1017.21051
2022-08-20T05:32:23.769Z,1017.221863
2022-08-20T05:32:32.676Z,1017.241577
2022-08-20T05:32:44.331Z,1017.241577
2022-08-20T05:32:44.591Z,1017.241577
2022-08-20T05:33:31.817Z,1017.297363
2022-08-20T05:34:34.585Z,1017.186523
2022-08-20T05:35:29.856Z,1017.234009
2022-08-20T05:36:34.275Z,1017.187866
2022-08-20T05:37:28.697Z,1017.156189
2022-08-20T05:38:29.077Z,1017.183472
2022-08-20T05:40:26.148Z,1017.163147
2022-08-20T05:41:27.496Z,1017.205383
2022-08-20T05:41:28.609Z,1017.205383
2022-08-20T05:42:21.863Z,1017.158813
2022-08-20T05:43:17.042Z,1017.190491
2022-08-20T05:45:15.660Z,1017.163147
2022-08-20T05:46:11.890Z,1017.186035
2022-08-20T05:47:09.080Z,1017.18512
2022-08-20T05:48:13.289Z,1017.250916
2022-08-20T05:50:09.224Z,1017.236084
2022-08-20T05:50:23.119Z,1017.236084
2022-08-20T05:50:23.401Z,1017.236084
2022-08-20T05:51:08.590Z,1017.24408
2022-08-20T05:52:04.502Z,1017.225708
2022-08-20T05:53:03.240Z,1017.222107
2022-08-20T05:54:58.226Z,1017.198486
2022-08-20T05:55:53.896Z,1017.166809
2022-08-20T05:57:57.677Z,1017.160645
2022-08-20T05:58:42.957Z,1017.18512
2022-08-20T05:59:41.859Z,1017.19281
2022-08-20T06:00:44.283Z,1017.207947
2022-08-20T06:01:42.462Z,1017.19928
2022-08-20T06:02:46.925Z,1017.136047
2022-08-20T06:03:45.022Z,1017.198486
2022-08-20T06:04:46.237Z,1017.240417
2022-08-20T06:04:56.128Z,1017.240417
2022-08-20T06:04:56.437Z,1017.240417
2022-08-20T06:05:43.631Z,1017.232605
2022-08-20T06:06:45.509Z,1017.229065
2022-08-20T06:07:45.432Z,1017.201782
2022-08-20T06:08:43.442Z,1017.244934
2022-08-20T06:09:46.896Z,1017.260681
2022-08-20T06:10:45.308Z,1017.202271
2022-08-20T06:11:46.510Z,1017.315063
2022-08-20T06:12:44.386Z,1017.248596
2022-08-20T06:13:46.084Z,1017.349304
2022-08-20T06:14:44.232Z,1017.286072
2022-08-20T06:15:44.168Z,1017.297485
2022-08-20T06:16:56.291Z,1017.320251
2022-08-20T06:16:57.104Z,1017.320251
2022-08-20T06:16:57.172Z,1017.320251
2022-08-20T06:17:45.516Z,1017.305542
2022-08-20T06:17:58.038Z,1017.305542
2022-08-20T06:19:44.686Z,1017.292847
2022-08-20T06:20:46.391Z,1017.312317
2022-08-20T06:21:42.844Z,1017.292358
2022-08-20T06:22:46.718Z,1017.26825
2022-08-20T06:23:57.286Z,1017.299377
2022-08-20T06:23:57.286Z,1017.299377
2022-08-20T06:23:57.610Z,1017.299377
2022-08-20T06:24:42.452Z,1017.311157
2022-08-20T06:25:39.395Z,1017.222656
2022-08-20T06:26:41.756Z,1017.246399
2022-08-20T06:27:41.812Z,1017.24292
2022-08-20T06:28:47.629Z,1017.28595
2022-08-20T06:29:41.212Z,1017.235046
2022-08-20T06:30:45.306Z,1017.257935
2022-08-20T06:31:42.048Z,1017.226624
2022-08-20T06:32:39.108Z,1017.292358
2022-08-20T06:34:35.914Z,1017.287903
2022-08-20T06:35:37.889Z,1017.302979
2022-08-20T06:36:35.940Z,1017.372131
2022-08-20T06:37:39.765Z,1017.274536
2022-08-20T06:38:35.075Z,1017.337036
2022-08-20T06:40:35.562Z,1017.364319
2022-08-20T06:41:38.866Z,1017.344177
2022-08-20T06:42:37.990Z,1017.324646
2022-08-20T06:43:32.268Z,1017.325745
2022-08-20T06:45:39.389Z,1017.356262
2022-08-20T06:46:36.593Z,1017.332703
2022-08-20T06:47:37.160Z,1017.401855
2022-08-20T06:48:35.350Z,1017.312378
2022-08-20T06:49:38.456Z,1017.323853
2022-08-20T06:50:32.947Z,1017.35437
2022-08-20T06:52:52.338Z,1017.298523
2022-08-20T06:52:53.380Z,1017.298523
2022-08-20T06:53:29.355Z,1017.346802
2022-08-20T06:55:27.469Z,1017.355408
2022-08-20T06:56:24.688Z,1017.33551
2022-08-20T06:57:24.442Z,1017.401245
2022-08-20T06:58:35.630Z,1017.365723
2022-08-20T06:58:35.666Z,1017.365723
2022-08-20T06:58:38.341Z,1017.365723
2022-08-20T06:59:26.642Z,1017.429016
2022-08-20T07:00:26.033Z,1017.401855
2022-08-20T07:01:21.450Z,1017.40564
2022-08-20T07:02:21.148Z,1017.374023
2022-08-20T07:02:29.253Z,1017.374023
2022-08-20T07:03:19.008Z,1017.385498
2022-08-20T07:04:14.389Z,1017.413269
2022-08-20T07:05:13.649Z,1017.428467
2022-08-20T07:06:08.082Z,1017.424011
2022-08-20T07:07:08.306Z,1017.466309
2022-08-20T07:08:03.899Z,1017.399414
2022-08-20T07:10:02.435Z,1017.359863
2022-08-20T07:10:59.892Z,1017.456238
2022-08-20T07:11:59.797Z,1017.459778
2022-08-20T07:12:56.336Z,1017.439575
2022-08-20T07:14:57.907Z,1017.521301
2022-08-20T07:15:57.079Z,1017.489624
2022-08-20T07:16:52.462Z,1017.566772
2022-08-20T07:17:51.636Z,1017.601013
2022-08-20T07:19:51.906Z,1017.628235
2022-08-20T07:20:46.139Z,1017.612244
2022-08-20T07:21:46.416Z,1017.557861
2022-08-20T07:22:41.962Z,1017.580688
2022-08-20T07:24:40.452Z,1017.609924
2022-08-20T07:25:36.897Z,1017.582642
2022-08-20T07:26:31.664Z,1017.473816
2022-08-20T07:27:31.028Z,1017.446655
2022-08-20T07:28:26.227Z,1017.482178
2022-08-20T07:29:25.177Z,1017.525146
2022-08-20T07:30:23.553Z,1017.457886
2022-08-20T07:31:22.366Z,1017.535156
2022-08-20T07:32:21.833Z,1017.585083
2022-08-20T07:33:50.716Z,1017.582092
2022-08-20T07:34:30.903Z,1017.446655
2022-08-20T07:35:30.856Z,1017.506348
2022-08-20T07:36:26.287Z,1017.514343
2022-08-20T07:37:27.306Z,1017.599304
2022-08-20T07:38:22.723Z,1017.521301
2022-08-20T07:39:22.618Z,1017.564392
2022-08-20T07:40:19.468Z,1017.529053
2022-08-20T07:41:18.028Z,1017.548462
2022-08-20T07:42:13.424Z,1017.571289
2022-08-20T07:43:12.915Z,1017.680176
2022-08-20T07:44:11.311Z,1017.625732
2022-08-20T07:45:11.367Z,1017.621216
2022-08-20T07:46:06.592Z,1017.597839
2022-08-20T07:47:06.088Z,1017.516296
2022-08-20T07:48:00.988Z,1017.671204
2022-08-20T07:49:03.482Z,1017.668274
2022-08-20T07:49:56.156Z,1017.668274
2022-08-20T07:50:59.057Z,1017.675659
2022-08-20T07:51:51.955Z,1017.610718
2022-08-20T07:52:53.188Z,1017.607361
2022-08-20T07:54:49.250Z,1017.642334
2022-08-20T07:55:49.908Z,1017.596008
2022-08-20T07:55:58.652Z,1017.596008
2022-08-20T07:55:58.867Z,1017.596008
2022-08-20T07:56:46.172Z,1017.694458
2022-08-20T07:57:42.204Z,1017.735046
2022-08-20T07:58:39.248Z,1017.739441
2022-08-20T07:59:39.000Z,1017.794006
2022-08-20T08:00:34.467Z,1017.727112
2022-08-20T08:01:31.484Z,1017.765808
2022-08-20T08:02:33.640Z,1017.834961
2022-08-20T08:03:37.612Z,1017.791931
2022-08-20T08:03:40.449Z,1017.791931
2022-08-20T08:03:49.123Z,1017.791931
2022-08-20T08:05:23.997Z,1017.809692
2022-08-20T08:06:29.330Z,1017.805786
2022-08-20T08:07:25.071Z,1017.814209
2022-08-20T08:08:18.534Z,1017.837463
2022-08-20T08:09:17.863Z,1017.791077
2022-08-20T08:10:13.527Z,1017.802368
2022-08-20T08:11:15.412Z,1017.786926
2022-08-20T08:12:10.689Z,1017.801331
2022-08-20T08:13:10.460Z,1017.707764
2022-08-20T08:15:07.172Z,1017.766541
2022-08-20T08:16:02.359Z,1017.712097
2022-08-20T08:17:00.702Z,1017.793884
2022-08-20T08:18:00.116Z,1017.75824
2022-08-20T08:19:37.117Z,1017.771545
2022-08-20T08:20:17.722Z,1017.812134
2022-08-20T08:21:14.938Z,1017.796936
2022-08-20T08:22:16.099Z,1017.785461
2022-08-20T08:23:24.736Z,1017.754395
2022-08-20T08:23:24.798Z,1017.754395
2022-08-20T08:25:06.980Z,1017.82605
2022-08-20T08:26:07.326Z,1017.776001
2022-08-20T08:26:15.936Z,1017.776001
2022-08-20T08:26:19.212Z,1017.776001
2022-08-20T08:27:04.309Z,1017.784363
2022-08-20T08:28:03.034Z,1017.839417
2022-08-20T08:29:57.850Z,1017.808472
2022-08-20T08:30:52.674Z,1017.851563
2022-08-20T08:31:50.548Z,1017.827881
2022-08-20T08:32:49.963Z,1017.834961
2022-08-20T08:34:47.334Z,1017.784363
2022-08-20T08:35:39.795Z,1017.803223
2022-08-20T08:36:38.816Z,1017.803223
2022-08-20T08:37:36.740Z,1017.686768
2022-08-20T08:38:32.250Z,1017.757141
2022-08-20T08:40:28.275Z,1017.777344
2022-08-20T08:41:28.641Z,1017.855164
2022-08-20T08:42:23.917Z,1017.812073
2022-08-20T08:43:23.625Z,1017.851563
2022-08-20T08:44:19.615Z,1017.887634
2022-08-20T08:45:18.228Z,1017.8526
2022-08-20T08:46:13.581Z,1017.89563
2022-08-20T08:47:13.648Z,1017.871948
2022-08-20T08:48:08.201Z,1017.953613
2022-08-20T08:49:07.962Z,1017.891235
2022-08-20T08:50:07.341Z,1017.832336
2022-08-20T08:51:10.270Z,1017.925476
2022-08-20T08:52:02.868Z,1017.944702
2022-08-20T08:53:00.574Z,1017.871033
2022-08-20T08:54:24.278Z,1017.921875
2022-08-20T08:55:05.404Z,1017.883179
2022-08-20T08:56:06.214Z,1017.899048
2022-08-20T08:57:09.332Z,1017.957275
2022-08-20T08:58:04.307Z,1018.007202
2022-08-20T08:58:16.585Z,1018.007202
2022-08-20T08:58:16.649Z,1018.007202
2022-08-20T08:59:04.104Z,1018.000244
2022-08-20T09:00:04.906Z,1017.973816
2022-08-20T09:01:01.614Z,1018.036316
2022-08-20T09:01:58.564Z,1018.016968
2022-08-20T09:02:54.128Z,1018.016968
2022-08-20T09:04:49.457Z,1018.009155
2022-08-20T09:05:50.284Z,1018.023987
2022-08-20T09:06:48.367Z,1018.039673
2022-08-20T09:07:49.696Z,1018.054688
2022-08-20T09:08:46.004Z,1018.043274
2022-08-20T09:09:45.796Z,1018.067017
2022-08-20T09:10:41.092Z,1018.128479
2022-08-20T09:11:44.042Z,1018.175171
2022-08-20T09:12:36.843Z,1018.108154
2022-08-20T09:13:37.002Z,1018.158752
2022-08-20T09:14:32.401Z,1018.21637
2022-08-20T09:15:32.473Z,1018.11377
2022-08-20T09:16:29.931Z,1018.163757
2022-08-20T09:16:52.351Z,1018.163757
2022-08-20T09:16:52.900Z,1018.163757
2022-08-20T09:17:28.546Z,1018.198425
2022-08-20T09:18:24.063Z,1018.207336
2022-08-20T09:20:19.991Z,1018.177124
2022-08-20T09:21:20.757Z,1018.236084
2022-08-20T09:22:17.119Z,1018.217102
2022-08-20T09:23:15.274Z,1018.221619
2022-08-20T09:25:12.216Z,1018.218994
2022-08-20T09:26:15.502Z,1018.274658
2022-08-20T09:27:09.164Z,1018.244568
2022-08-20T09:28:12.833Z,1018.234497
2022-08-20T09:29:58.962Z,1018.21405
2022-08-20T09:30:39.335Z,1018.235596
2022-08-20T09:31:37.765Z,1018.205688
2022-08-20T09:32:34.159Z,1018.232971
2022-08-20T09:33:33.925Z,1018.314758
2022-08-20T09:35:28.654Z,1018.309875
2022-08-20T09:36:31.902Z,1018.235596
2022-08-20T09:36:32.466Z,1018.235596
2022-08-20T09:37:24.531Z,1018.248413
2022-08-20T09:38:19.834Z,1018.276123
2022-08-20T09:39:18.965Z,1018.271729
2022-08-20T09:40:21.371Z,1018.307312
2022-08-20T09:41:13.570Z,1018.32312
2022-08-20T09:42:08.699Z,1018.276123
2022-08-20T09:43:08.167Z,1018.268555
2022-08-20T09:45:01.315Z,1018.310425
2022-08-20T09:46:01.062Z,1018.278625
2022-08-20T09:46:56.193Z,1018.235596
2022-08-20T09:47:58.081Z,1018.301575
2022-08-20T09:48:50.721Z,1018.316895
2022-08-20T09:49:52.574Z,1018.352234
2022-08-20T09:50:45.159Z,1018.258972
2022-08-20T09:51:45.199Z,1018.247009
2022-08-20T09:52:41.279Z,1018.305908
2022-08-20T09:53:40.986Z,1018.290161
2022-08-20T09:54:36.227Z,1018.290161
2022-08-20T09:55:35.646Z,1018.271301
2022-08-20T09:56:30.344Z,1018.356018
2022-08-20T09:57:30.062Z,1018.294067
2022-08-20T09:58:25.348Z,1018.395203
2022-08-20T09:59:27.363Z,1018.270447
2022-08-20T10:00:20.003Z,1018.352234
2022-08-20T10:01:22.822Z,1018.325012
2022-08-20T10:02:15.618Z,1018.314209
2022-08-20T10:03:14.586Z,1018.350342
2022-08-20T10:04:13.662Z,1018.330566
2022-08-20T10:05:08.847Z,1018.25769
2022-08-20T10:06:08.887Z,1018.293701
2022-08-20T10:07:03.730Z,1018.364136
2022-08-20T10:08:03.441Z,1018.285645
2022-08-20T10:08:59.645Z,1018.304688
2022-08-20T10:10:01.954Z,1018.331909
2022-08-20T10:10:56.198Z,1018.346436
2022-08-20T10:11:54.275Z,1018.385193
2022-08-20T10:12:55.272Z,1018.369324
2022-08-20T10:14:19.121Z,1018.40802
2022-08-20T10:14:59.424Z,1018.393494
2022-08-20T10:15:57.621Z,1018.432617
2022-08-20T10:16:59.853Z,1018.378113
2022-08-20T10:17:53.540Z,1018.425232
2022-08-20T10:18:54.069Z,1018.416931
2022-08-20T10:19:49.602Z,1018.413635
2022-08-20T10:20:50.247Z,1018.402405
2022-08-20T10:21:45.789Z,1018.402771
2022-08-20T10:22:45.933Z,1018.418518
2022-08-20T10:23:42.200Z,1018.402771
2022-08-20T10:25:38.253Z,1018.317444
2022-08-20T10:26:41.487Z,1018.341187
2022-08-20T10:27:34.418Z,1018.341187
2022-08-20T10:28:35.588Z,1018.341187
2022-08-20T10:30:31.678Z,1018.353455
2022-08-20T10:31:27.874Z,1018.361511
2022-08-20T10:32:27.860Z,1018.350098
2022-08-20T10:33:23.493Z,1018.362244
2022-08-20T10:34:21.487Z,1018.404663
2022-08-20T10:35:21.872Z,1018.357849
2022-08-20T10:36:17.565Z,1018.389465
2022-08-20T10:37:20.982Z,1018.413391
2022-08-20T10:38:13.948Z,1018.363281
2022-08-20T10:39:14.021Z,1018.382507
2022-08-20T10:40:09.739Z,1018.437134
2022-08-20T10:41:07.421Z,1018.405884
2022-08-20T10:42:10.380Z,1018.487671
2022-08-20T10:43:03.799Z,1018.414246
2022-08-20T10:44:06.606Z,1018.441467
2022-08-20T10:45:00.901Z,1018.407043
2022-08-20T10:46:04.379Z,1018.434387
2022-08-20T10:46:57.854Z,1018.379822
2022-08-20T10:48:00.571Z,1018.364014
2022-08-20T10:48:53.646Z,1018.328491
2022-08-20T10:50:50.035Z,1018.329651
2022-08-20T10:52:13.916Z,1018.400085
2022-08-20T10:52:54.411Z,1018.334167
2022-08-20T10:53:52.656Z,1018.322693
2022-08-20T10:55:49.625Z,1018.338867